createdAt,value
2023-04-11T00:05:32.009Z,6.3
2023-04-11T00:09:39.247Z,5.2
2023-04-11T00:10:44.299Z,8.4
2023-04-11T00:12:46.182Z,3.5
2023-04-11T00:16:53.449Z,4.3
2023-04-11T00:19:00.279Z,5.4
2023-04-11T00:21:03.716Z,8.1
2023-04-11T00:23:07.375Z,17
2023-04-11T00:27:14.625Z,16.1
2023-04-11T00:29:18.224Z,16.7
2023-04-11T00:31:21.891Z,22.2
2023-04-11T00:33:28.524Z,19.3
2023-04-11T00:35:32.218Z,17.4
2023-04-11T00:37:35.802Z,11
2023-04-11T00:39:39.410Z,7.9
2023-04-11T00:41:43.068Z,12.4
2023-04-11T00:52:04.281Z,20.5
2023-04-11T00:54:07.865Z,13.2
2023-04-11T00:56:11.468Z,20
2023-04-11T00:58:16.787Z,21.2
2023-04-11T01:00:18.716Z,14.5
2023-04-11T01:02:25.545Z,29.6
2023-04-11T01:04:29.023Z,29.4
2023-04-11T01:06:32.681Z,28
2023-04-11T01:07:36.021Z,27.1
2023-04-11T01:09:39.636Z,23.1
2023-04-11T01:15:53.593Z,20.6
2023-04-11T01:17:57.261Z,23.8
2023-04-11T01:22:04.436Z,27.9
2023-04-11T01:24:08.066Z,28
2023-04-11T01:26:11.677Z,27.5
2023-04-11T01:28:15.357Z,34.9
2023-04-11T01:30:21.996Z,33.9
2023-04-11T01:32:25.617Z,31
2023-04-11T01:34:29.218Z,24.3
2023-04-11T01:36:32.863Z,36.5
2023-04-11T01:38:36.448Z,29.2
2023-04-11T01:40:40.092Z,32.7
2023-04-11T01:42:43.724Z,36.7
2023-04-11T01:44:50.376Z,30.3
2023-04-11T01:46:53.992Z,40.3
2023-04-11T01:53:04.873Z,22.6
2023-04-11T01:55:08.466Z,29.5
2023-04-11T01:57:12.087Z,23.6
2023-04-11T01:59:18.749Z,37.2
2023-04-11T02:01:22.435Z,29.1
2023-04-11T02:03:26.146Z,37.6
2023-04-11T02:04:29.542Z,29.6
2023-04-11T02:06:32.967Z,34.3
2023-04-11T02:08:36.579Z,31.6
2023-04-11T02:10:40.191Z,26.3
2023-04-11T02:12:46.899Z,28.1
2023-04-11T02:14:51.734Z,21.3
2023-04-11T02:16:54.105Z,25
2023-04-11T02:18:57.942Z,16.5
2023-04-11T02:21:02.900Z,16.5
2023-04-11T02:23:06.501Z,28.4
2023-04-11T02:27:16.745Z,16
2023-04-11T02:33:27.615Z,17.4
2023-04-11T02:35:31.304Z,13.8
2023-04-11T02:37:34.806Z,7.2
2023-04-11T02:39:38.426Z,17.4
2023-04-11T02:41:45.113Z,21.2
2023-04-11T02:43:48.754Z,14.2
2023-04-11T02:45:56.399Z,6.8
2023-04-11T02:47:56.030Z,14.4
2023-04-11T02:49:59.625Z,8.3
2023-04-11T02:52:03.274Z,10.1
2023-04-11T02:54:06.880Z,12.3
2023-04-11T02:58:17.180Z,6.1
2023-04-11T03:00:20.807Z,19.3
2023-04-11T03:04:43.049Z,15.3
2023-04-11T03:08:53.439Z,12.2
2023-04-11T03:10:56.973Z,10.9
2023-04-11T03:13:00.555Z,7.8
2023-04-11T03:15:04.217Z,5.3
2023-04-11T03:17:07.793Z,14.9
2023-04-11T03:19:11.440Z,6
2023-04-11T03:23:21.744Z,6.1
2023-04-11T03:25:25.404Z,6.2
2023-04-11T03:27:28.971Z,9.3
2023-04-11T03:29:32.558Z,6.8
2023-04-11T03:31:36.210Z,14.6
2023-04-11T03:33:39.779Z,4.3
2023-04-11T03:37:50.140Z,6.5
2023-04-11T03:39:53.742Z,5.2
2023-04-11T03:41:57.445Z,10.1
2023-04-11T03:44:00.976Z,7
2023-04-11T03:46:04.607Z,11.6
2023-04-11T03:48:08.393Z,6.1
2023-04-11T03:50:11.823Z,8.1
2023-04-11T03:52:18.518Z,10.7
2023-04-11T03:56:25.734Z,7.3
2023-04-11T03:57:29.059Z,10.2
2023-04-11T03:59:32.682Z,7.7
2023-04-11T04:01:36.379Z,7.6
2023-04-11T04:03:40.238Z,3.3
2023-04-11T04:05:46.596Z,6.1
2023-04-11T04:07:50.235Z,7.4
2023-04-11T04:09:53.858Z,24.8
2023-04-11T04:11:57.465Z,9.1
2023-04-11T04:14:01.080Z,3.9
2023-04-11T04:16:04.720Z,6.7
2023-04-11T04:18:08.327Z,6
2023-04-11T04:20:14.994Z,4.2
2023-04-11T04:34:43.323Z,6.4
2023-04-11T04:42:57.786Z,8.3
2023-04-11T04:47:05.026Z,8.6
2023-04-11T04:49:11.654Z,13.1
2023-04-11T04:51:15.286Z,4.1
2023-04-11T04:53:18.905Z,12.4
2023-04-11T04:54:22.222Z,6.2
2023-04-11T04:56:25.818Z,6
2023-04-11T04:58:29.443Z,5.9
2023-04-11T05:00:33.049Z,3.9
2023-04-11T05:04:43.365Z,7
2023-04-11T05:06:46.983Z,7.6
2023-04-11T05:08:50.591Z,17.9
2023-04-11T05:10:54.206Z,5.5
2023-04-11T05:12:57.806Z,13.3
2023-04-11T05:15:01.496Z,5.3
2023-04-11T05:17:08.112Z,11.4
2023-04-11T05:23:18.987Z,5
2023-04-11T05:25:22.553Z,10
2023-04-11T05:27:26.219Z,13.1
2023-04-11T05:29:29.834Z,9.2
2023-04-11T05:31:36.495Z,7.7
2023-04-11T05:35:43.826Z,6.6
2023-04-11T05:39:50.973Z,2.4
2023-04-11T05:41:54.609Z,8.2
2023-04-11T05:43:58.254Z,9.1
2023-04-11T05:46:04.952Z,10.3
2023-04-11T05:48:08.547Z,5.4
2023-04-11T05:50:12.166Z,7.1
2023-04-11T05:51:15.484Z,9.3
2023-04-11T06:05:43.885Z,8.7
2023-04-11T06:07:47.455Z,4
2023-04-11T06:09:51.122Z,4.8
2023-04-11T06:11:54.729Z,6.3
2023-04-11T06:14:01.577Z,11.7
2023-04-11T06:16:05.071Z,7
2023-04-11T06:18:08.694Z,6
2023-04-11T06:22:15.866Z,3.2
2023-04-11T06:24:19.476Z,5.8
2023-04-11T06:26:23.112Z,6.2
2023-04-11T06:28:29.798Z,7.2
2023-04-11T06:30:33.430Z,7.2
2023-04-11T06:32:37.074Z,3.1
2023-04-11T06:34:40.651Z,9.6
2023-04-11T06:45:01.903Z,8.7
2023-04-11T06:53:37.031Z,8.4
2023-04-11T07:08:05.370Z,12.7
2023-04-11T07:10:12.035Z,8.1
2023-04-11T07:14:19.232Z,11.6
2023-04-11T07:16:22.840Z,4.8
2023-04-11T07:18:26.409Z,5.6
2023-04-11T07:20:30.013Z,4.1
2023-04-11T07:22:33.620Z,6.1
2023-04-11T07:24:40.279Z,7.1
2023-04-11T07:26:43.884Z,4.3
2023-04-11T07:28:47.469Z,5
2023-04-11T07:30:51.080Z,4.7
2023-04-11T07:32:54.668Z,6.8
2023-04-11T07:34:58.238Z,5.1
2023-04-11T07:37:01.799Z,4.4
2023-04-11T07:39:08.472Z,10.4
2023-04-11T07:41:12.035Z,11
2023-04-11T07:46:22.504Z,3.8
2023-04-11T07:48:26.036Z,7.4
2023-04-11T08:00:50.585Z,5.3
2023-04-11T08:02:54.390Z,7.1
2023-04-11T08:07:04.390Z,2.9
2023-04-11T08:09:07.930Z,2.6
2023-04-11T08:13:15.111Z,3.4
2023-04-11T08:15:18.589Z,4.6
2023-04-11T08:17:28.210Z,1.5
2023-04-11T08:29:48.069Z,9.6
2023-04-11T08:31:51.629Z,7.8
2023-04-11T08:33:56.572Z,6.4
2023-04-11T08:40:08.965Z,5.1
2023-04-11T08:43:15.836Z,6.3
2023-04-11T08:45:19.372Z,5.2
2023-04-11T08:53:36.647Z,7.6
2023-04-11T08:55:40.207Z,7.6
2023-04-11T08:57:43.955Z,3.2
2023-04-11T08:59:47.305Z,8.2
2023-04-11T09:03:57.928Z,6
2023-04-11T09:06:01.056Z,3.3
2023-04-11T09:08:04.602Z,7.3
2023-04-11T09:10:08.154Z,2.3
2023-04-11T09:16:18.912Z,3.1
2023-04-11T09:20:29.002Z,4.8
2023-04-11T09:24:36.134Z,0.8
2023-04-11T09:26:39.622Z,2.9
2023-04-11T09:28:43.216Z,2.6
2023-04-11T09:30:46.737Z,2.3
2023-04-11T09:32:53.432Z,2.7
2023-04-11T09:37:00.412Z,6.1
2023-04-11T09:42:10.806Z,3.4
2023-04-11T09:52:31.586Z,2.1
2023-04-11T09:58:42.114Z,1.7
2023-04-11T10:04:55.849Z,3.6
2023-04-11T10:06:59.298Z,3.4
2023-04-11T10:09:02.826Z,8.2
2023-04-11T10:11:06.314Z,8.5
2023-04-11T10:13:09.849Z,7.7
2023-04-11T10:15:16.423Z,8.6
2023-04-11T10:17:22.079Z,2.5
2023-04-11T10:19:23.504Z,1.8
2023-04-11T10:23:30.562Z,1.8
2023-04-11T10:29:44.203Z,3.2
2023-04-11T10:36:10.045Z,5.8
2023-04-11T10:42:23.566Z,3.9
2023-04-11T10:50:37.652Z,2.6
2023-04-11T10:52:41.168Z,3.7
2023-04-11T10:54:44.680Z,1.6
2023-04-11T11:03:01.876Z,3.1
2023-04-11T11:05:05.210Z,3.1
2023-04-11T11:09:12.108Z,3.2
2023-04-11T11:11:18.612Z,3.7
2023-04-11T11:13:22.091Z,0.9
2023-04-11T11:15:25.522Z,4.2
2023-04-11T11:17:28.999Z,2
2023-04-11T11:19:32.424Z,3.7
2023-04-11T11:21:35.669Z,1.5
2023-04-11T11:23:38.979Z,1.4
2023-04-11T11:25:45.302Z,4
2023-04-11T11:27:48.608Z,6.1
2023-04-11T11:29:51.989Z,2.3
2023-04-11T11:53:37.411Z,3.7
2023-04-11T11:57:44.046Z,2.3
2023-04-11T11:59:47.289Z,4.4
2023-04-11T12:01:50.715Z,4.4
2023-04-11T12:05:57.229Z,3.1
2023-04-11T12:08:03.602Z,1.7
2023-04-11T12:10:06.989Z,4.7
2023-04-11T12:12:10.242Z,4.3
2023-04-11T12:16:16.949Z,6.7
2023-04-11T12:18:20.185Z,2.6
2023-04-11T12:20:23.559Z,7.3
2023-04-11T12:22:29.874Z,4.7
2023-04-11T12:24:33.258Z,2
2023-04-11T12:26:39.988Z,2.1
2023-04-11T12:27:39.758Z,6.4
2023-04-11T12:29:43.113Z,3.8
2023-04-11T12:35:56.165Z,2.1
2023-04-11T12:40:02.873Z,2.3
2023-04-11T12:44:09.625Z,4.4
2023-04-11T12:48:16.355Z,2
2023-04-11T12:52:25.905Z,2.8
2023-04-11T12:54:29.184Z,8.3
2023-04-11T12:58:35.715Z,5.6
2023-04-11T13:00:39.091Z,3.8
2023-04-11T13:02:45.054Z,3.4
2023-04-11T13:04:48.936Z,2.4
2023-04-11T13:06:52.113Z,3.1
2023-04-11T13:08:55.559Z,5.5
2023-04-11T13:10:58.623Z,2.9
2023-04-11T13:13:11.636Z,3
2023-04-11T13:15:05.130Z,3.7
2023-04-11T13:17:08.351Z,1.8
2023-04-11T13:19:14.583Z,1.2
2023-04-11T13:23:21.054Z,4.3
2023-04-11T13:24:24.197Z,4.1
2023-04-11T13:28:30.769Z,4.2
2023-04-11T13:32:40.447Z,5.7
2023-04-11T13:34:43.606Z,6.9
2023-04-11T13:38:50.232Z,3.6
2023-04-11T13:40:53.472Z,4.3
2023-04-11T13:42:56.837Z,2.7
2023-04-11T13:45:00.207Z,1.7
2023-04-11T13:51:12.944Z,3.5
2023-04-11T13:55:19.407Z,5.2
2023-04-11T13:59:25.844Z,3.5
2023-04-11T14:01:32.243Z,3.8
2023-04-11T14:03:35.519Z,4.3
2023-04-11T14:05:38.701Z,7.1
2023-04-11T14:07:41.947Z,4.6
2023-04-11T14:09:45.226Z,4.3
2023-04-11T14:13:53.334Z,2.4
2023-04-11T14:22:30.450Z,3.5
2023-04-11T14:24:33.631Z,5.5
2023-04-11T14:26:37.050Z,5.2
2023-04-11T14:28:43.551Z,5.4
2023-04-11T14:30:47.020Z,2.3
2023-04-11T14:32:50.277Z,1.7
2023-04-11T14:34:53.638Z,4.1
2023-04-11T14:36:57.103Z,4.7
2023-04-11T14:39:00.300Z,3.9
2023-04-11T14:41:03.799Z,5.4
2023-04-11T14:43:10.170Z,6.9
2023-04-11T14:45:13.460Z,2.6
2023-04-11T14:47:16.779Z,1.6
2023-04-11T14:49:20.086Z,7.9
2023-04-11T14:53:26.768Z,6.9
2023-04-11T14:55:30.179Z,0.6
2023-04-11T15:03:47.009Z,5.2
2023-04-11T15:05:50.344Z,1.5
2023-04-11T15:07:53.807Z,2
2023-04-11T15:09:57.101Z,5.3
2023-04-11T15:12:03.653Z,2.4
2023-04-11T15:14:07.087Z,3.5
2023-04-11T15:16:10.561Z,2.9
2023-04-11T15:17:13.776Z,4
2023-04-11T15:19:17.258Z,5.4
2023-04-11T15:21:20.642Z,4.2
2023-04-11T15:23:24.133Z,3.2
2023-04-11T15:25:30.698Z,1.4
2023-04-11T15:27:34.132Z,3.8
2023-04-11T15:29:39.375Z,3.2
2023-04-11T15:31:41.169Z,4
2023-04-11T15:33:44.481Z,11.6
2023-04-11T15:35:47.981Z,3.9
2023-04-11T15:37:51.415Z,1.3
2023-04-11T15:42:01.380Z,3.2
2023-04-11T15:48:11.809Z,5.3
2023-04-11T15:50:15.262Z,8.3
2023-04-11T15:52:18.740Z,2.5
2023-04-11T16:02:39.222Z,2.8
2023-04-11T16:10:56.009Z,4
2023-04-11T16:12:59.526Z,7.7
2023-04-11T16:14:02.790Z,5.2
2023-04-11T16:22:19.773Z,2.8
2023-04-11T16:24:23.315Z,4
2023-04-11T16:28:30.219Z,2.8
2023-04-11T16:30:34.241Z,9.6
2023-04-11T16:32:37.212Z,4.1
2023-04-11T16:34:40.662Z,2.9
2023-04-11T16:36:47.231Z,5
2023-04-11T16:38:50.738Z,3.3
2023-04-11T16:40:54.211Z,5.1
2023-04-11T16:45:01.161Z,3.6
2023-04-11T16:47:04.628Z,11
2023-04-11T16:49:08.131Z,5.5
2023-04-11T16:51:14.698Z,4.4
2023-04-11T16:53:18.278Z,2.9
2023-04-11T16:55:21.645Z,3.4
2023-04-11T16:57:25.160Z,2.3
2023-04-11T16:59:28.645Z,6.7
2023-04-11T17:01:32.194Z,4.2
2023-04-11T17:03:35.793Z,5.4
2023-04-11T17:12:55.922Z,5.5
2023-04-11T17:14:59.404Z,1.7
2023-04-11T17:17:03.081Z,6.2
2023-04-11T17:21:12.957Z,2.6
2023-04-11T17:23:16.476Z,7.3
2023-04-11T17:25:19.972Z,4.2
2023-04-11T17:27:23.486Z,4.8
2023-04-11T17:29:26.966Z,5.2
2023-04-11T17:33:37.123Z,5.5
2023-04-11T17:35:40.698Z,6
2023-04-11T17:37:44.110Z,1.9
2023-04-11T17:39:47.608Z,8.9
2023-04-11T17:45:58.292Z,12.1
2023-04-11T17:50:08.358Z,7.7
2023-04-11T17:52:12.041Z,6.8
2023-04-11T17:54:15.449Z,5
2023-04-11T17:56:18.980Z,4.5
2023-04-11T17:58:22.536Z,3.6
2023-04-11T18:00:26.118Z,9.7
2023-04-11T18:02:33.052Z,2.9
2023-04-11T18:04:36.506Z,5.7
2023-04-11T18:06:39.875Z,8
2023-04-11T18:09:02.037Z,9.1
2023-04-11T18:11:05.916Z,5.7
2023-04-11T18:13:09.182Z,8.1
2023-04-11T18:15:15.806Z,5.3
2023-04-11T18:17:19.365Z,3.4
2023-04-11T18:19:22.942Z,12.1
2023-04-11T18:25:33.682Z,6.3
2023-04-11T18:29:43.901Z,8.3
2023-04-11T18:31:47.521Z,5.6
2023-04-11T18:33:51.095Z,20.1
2023-04-11T18:35:54.713Z,8.9
2023-04-11T18:37:58.244Z,10.4
2023-04-11T18:40:01.882Z,9.4
2023-04-11T18:44:12.251Z,12.1
2023-04-11T18:46:15.675Z,7.1
2023-04-11T18:48:19.269Z,8.6
2023-04-11T18:50:22.823Z,7.4
2023-04-11T18:52:28.018Z,18.8
2023-04-11T18:54:30.022Z,7
2023-04-11T18:58:42.155Z,5.8
2023-04-11T19:00:43.845Z,6.1
2023-04-11T19:02:47.693Z,8.2
2023-04-11T19:07:57.959Z,9.1
2023-04-11T19:10:01.546Z,5
2023-04-11T19:20:22.544Z,5.8
2023-04-11T19:28:39.930Z,10.5
2023-04-11T19:30:43.496Z,16.2
2023-04-11T19:32:47.101Z,4.5
2023-04-11T19:34:50.779Z,7.4
2023-04-11T19:36:54.307Z,5.7
2023-04-11T19:38:57.853Z,4.5
2023-04-11T19:41:04.516Z,5.8
2023-04-11T19:43:08.097Z,5.2
2023-04-11T19:49:18.807Z,8.4
2023-04-11T19:55:32.592Z,7.8
2023-04-11T20:00:43.137Z,4
2023-04-11T20:04:50.317Z,5.8
2023-04-11T20:06:53.880Z,2.5
2023-04-11T20:27:37.332Z,6.1
2023-04-11T20:29:40.917Z,7.5
2023-04-11T20:31:44.509Z,10.9
2023-04-11T20:33:48.099Z,7.1
2023-04-11T20:40:01.909Z,5.9
2023-04-11T20:44:09.129Z,8.2
2023-04-11T20:46:12.730Z,5.1
2023-04-11T20:48:16.280Z,11.4
2023-04-11T20:50:19.933Z,10.8
2023-04-11T20:57:37.005Z,6.7
2023-04-11T20:59:40.602Z,9
2023-04-11T21:01:44.381Z,15.2
2023-04-11T21:03:48.248Z,5.7
2023-04-11T21:10:01.664Z,9.8
2023-04-11T21:12:05.166Z,5.2
2023-04-11T21:16:12.408Z,6.4
2023-04-11T21:18:15.981Z,12.3
2023-04-11T21:20:22.784Z,9.1
2023-04-11T21:22:26.248Z,11.2
2023-04-11T21:24:29.838Z,7.2
2023-04-11T21:28:37.001Z,6.1
2023-04-11T21:30:40.620Z,11.4
2023-04-11T21:32:44.316Z,7.3
2023-04-11T21:34:50.867Z,5.2
2023-04-11T21:36:54.467Z,12.8
2023-04-11T21:38:58.110Z,13
2023-04-11T21:55:50.620Z,3
2023-04-11T21:57:54.211Z,6.5
2023-04-11T21:59:57.811Z,8.1
2023-04-11T22:02:04.643Z,2.2
2023-04-11T22:04:08.260Z,16.3
2023-04-11T22:10:18.836Z,10.2
2023-04-11T22:12:22.454Z,15.2
2023-04-11T22:14:26.030Z,3.7
2023-04-11T22:16:32.768Z,5.4
2023-04-11T22:18:36.296Z,3
2023-04-11T22:20:39.892Z,12.8
2023-04-11T22:22:43.509Z,5.3
2023-04-11T22:41:18.981Z,4.1
2023-04-11T22:43:22.599Z,5.8
2023-04-11T22:45:29.153Z,3.4
2023-04-11T22:47:32.772Z,6.2
2023-04-11T22:50:39.702Z,2.4
2023-04-11T22:52:43.264Z,5.7
2023-04-11T23:03:04.413Z,4.1
2023-04-11T23:05:07.969Z,5.8
2023-04-11T23:09:15.153Z,1.8
2023-04-11T23:11:18.752Z,6.8
2023-04-11T23:13:25.412Z,6.5
2023-04-11T23:19:36.540Z,5.8
2023-04-11T23:23:43.417Z,4.3
2023-04-11T23:25:47.021Z,13.1
2023-04-11T23:27:53.699Z,4.7
2023-04-11T23:29:57.310Z,9.8
2023-04-11T23:32:00.843Z,9.4
2023-04-11T23:34:04.486Z,14.4
2023-04-11T23:36:08.212Z,5.8
2023-04-11T23:38:11.684Z,6.3
2023-04-11T23:40:15.306Z,2.7
2023-04-11T23:42:21.895Z,6.8
2023-04-11T23:44:25.541Z,6.2
2023-04-11T23:49:36.046Z,5.8
2023-04-11T23:53:43.256Z,6.5
